Theodore Francis Green State Airport Providence US
ICAO: KPVD
IATA: PVD
Category: Medium
Scheduled Services: Yes

Elevation: 55 ft
TransAlt. 18000 ft.

Airport Communications:
PROVIDENCE APP/DEP:135.4
ATIS:124.2
CLNC DEL:126.65
CTAF:120.7
PROVIDENCE GND:121.9
BRIDGEPORT RDO:122.6
PROVIDENCE TWR:120.7

KPVD Zoom In..

If you have problems with the map follow the link
https://www.worldairports.se/pages/airport.php?
ICAO=KPVD

Runways:

(A) RW 05 length 7166 ft width 150 ft
ILS 109.30 / hdg 47

(B) RW 16 length 6081 ft width 150 ft
---- / hdg 157

(C) RW 23 length 7166 ft width 150 ft
ILS 109.30 / hdg 227

(D) RW 34 length 6081 ft width 150 ft
ILS 111.50 / hdg 337

Location; KPVD
Day. 18 / Time. 02.51 Zulu
* Altimeter: 30.62
* Temperature: -09° c. -15.8°f.
* Wind from: 330° Speed 10 kn.
Dewpoint: -22° c.
Visibility: 10 Statute Miles.
Clouds: Clear (automated report).

KPVD 180251Z 33010KT 10SM CLR M09/M22 A3062 RMK AO2 SLP369 T10891217 50004


Wind From 330°
Speed 10 kn.

 
 
jpsmedia worldairports.se 2020   terms of use